createdAt,value
2018-12-23T00:00:49.920Z,2.00
2018-12-23T00:03:17.413Z,1.93
2018-12-23T00:05:44.911Z,2.00
2018-12-23T00:08:12.420Z,2.47
2018-12-23T00:10:39.906Z,1.97
2018-12-23T00:13:07.419Z,2.10
2018-12-23T00:15:34.912Z,2.17
2018-12-23T00:18:02.433Z,2.40
2018-12-23T00:20:29.922Z,2.53
2018-12-23T00:22:57.410Z,2.47
2018-12-23T00:25:24.936Z,1.80
2018-12-23T00:27:52.423Z,1.97
2018-12-23T00:30:19.936Z,2.27
2018-12-23T00:32:47.426Z,2.10
2018-12-23T00:35:20.254Z,2.07
2018-12-23T00:37:44.459Z,1.90
2018-12-23T00:40:11.951Z,3.27
2018-12-23T00:42:39.463Z,2.33
2018-12-23T00:45:07.104Z,2.33
2018-12-23T00:47:34.593Z,2.57
2018-12-23T00:50:02.475Z,2.37
2018-12-23T00:52:29.964Z,1.90
2018-12-23T00:54:57.475Z,2.13
2018-12-23T00:57:24.969Z,1.90
2018-12-23T00:59:52.485Z,1.83
2018-12-23T01:02:19.975Z,2.10
2018-12-23T01:04:47.463Z,1.90
2018-12-23T01:07:16.060Z,1.90
2018-12-23T01:09:43.544Z,1.93
2018-12-23T01:12:11.055Z,2.63
2018-12-23T01:14:38.551Z,2.03
2018-12-23T01:17:06.139Z,2.03
2018-12-23T01:19:33.847Z,2.33
2018-12-23T01:22:01.355Z,2.67
2018-12-23T01:24:28.839Z,2.43
2018-12-23T01:26:56.351Z,2.13
2018-12-23T01:29:23.916Z,2.40
2018-12-23T01:31:51.431Z,2.10
2018-12-23T01:34:18.916Z,1.73
2018-12-23T01:36:46.408Z,2.10
2018-12-23T01:39:13.929Z,2.27
2018-12-23T01:41:41.424Z,2.33
2018-12-23T01:44:09.016Z,1.73
2018-12-23T01:46:36.543Z,2.30
2018-12-23T01:49:04.055Z,2.17
2018-12-23T01:51:31.544Z,1.80
2018-12-23T01:53:59.059Z,2.07
2018-12-23T01:56:26.551Z,2.10
2018-12-23T01:58:54.049Z,2.40
2018-12-23T02:01:21.640Z,1.67
2018-12-23T02:03:49.128Z,1.93
2018-12-23T02:06:16.715Z,1.90
2018-12-23T02:08:44.279Z,2.27
2018-12-23T02:11:11.787Z,2.17
2018-12-23T02:13:39.279Z,2.10
2018-12-23T02:16:06.774Z,2.10
2018-12-23T02:18:34.287Z,1.90
2018-12-23T02:21:01.790Z,2.10
2018-12-23T02:23:29.294Z,2.50
2018-12-23T02:25:56.793Z,2.47
2018-12-23T02:28:24.278Z,1.90
2018-12-23T02:30:51.792Z,2.10
2018-12-23T02:33:19.282Z,2.43
2018-12-23T02:35:55.277Z,2.10
2018-12-23T02:38:16.316Z,2.37
2018-12-23T02:40:43.812Z,2.50
2018-12-23T02:43:11.333Z,3.30
2018-12-23T02:45:38.820Z,2.10
2018-12-23T02:48:06.332Z,2.40
2018-12-23T02:50:33.831Z,2.37
2018-12-23T02:53:01.323Z,1.87
2018-12-23T02:55:28.834Z,2.23
2018-12-23T02:57:56.319Z,2.13
2018-12-23T03:00:23.827Z,1.80
2018-12-23T03:02:51.316Z,2.03
2018-12-23T03:05:18.811Z,2.10
2018-12-23T03:07:46.319Z,2.73
2018-12-23T03:10:13.802Z,2.80
2018-12-23T03:12:41.296Z,2.17
2018-12-23T03:15:08.895Z,2.00
2018-12-23T03:17:36.388Z,3.40
2018-12-23T03:20:04.964Z,2.00
2018-12-23T03:22:32.452Z,2.17
2018-12-23T03:24:59.978Z,2.20
2018-12-23T03:27:27.484Z,2.50
2018-12-23T03:29:54.984Z,2.30
2018-12-23T03:32:22.497Z,2.90
2018-12-23T03:34:49.987Z,2.63
2018-12-23T03:37:17.478Z,2.40
2018-12-23T03:39:45.000Z,2.20
2018-12-23T03:42:12.496Z,1.70
2018-12-23T03:44:40.015Z,2.53
2018-12-23T03:47:07.504Z,2.00
2018-12-23T03:49:35.023Z,2.23
2018-12-23T03:52:02.511Z,2.23
2018-12-23T03:54:30.004Z,2.20
2018-12-23T03:56:57.525Z,2.27
2018-12-23T03:59:25.025Z,2.23
2018-12-23T04:01:52.544Z,2.33
2018-12-23T04:04:20.031Z,2.60
2018-12-23T04:06:47.520Z,2.37
2018-12-23T04:09:15.035Z,2.00
2018-12-23T04:11:42.523Z,1.60
2018-12-23T04:14:10.040Z,1.87
2018-12-23T04:16:37.529Z,2.10
2018-12-23T04:19:05.136Z,2.03
2018-12-23T04:21:32.733Z,2.40
2018-12-23T04:24:00.223Z,2.33
2018-12-23T04:26:27.734Z,2.50
2018-12-23T04:28:55.219Z,2.23
2018-12-23T04:31:22.805Z,2.90
2018-12-23T04:33:50.339Z,2.80
2018-12-23T04:36:17.913Z,2.10
2018-12-23T04:38:45.433Z,2.53
2018-12-23T04:41:12.932Z,1.90
2018-12-23T04:43:40.450Z,2.27
2018-12-23T04:46:07.945Z,2.60
2018-12-23T04:48:35.469Z,2.43
2018-12-23T04:51:02.955Z,2.50
2018-12-23T04:53:30.454Z,2.40
2018-12-23T04:55:57.973Z,2.83
2018-12-23T04:58:25.465Z,2.30
2018-12-23T05:00:52.976Z,2.30
2018-12-23T05:03:20.464Z,2.43
2018-12-23T05:05:47.951Z,2.10
2018-12-23T05:08:15.468Z,3.27
2018-12-23T05:10:42.966Z,1.90
2018-12-23T05:13:10.479Z,2.60
2018-12-23T05:15:37.971Z,2.80
2018-12-23T05:18:05.483Z,2.20
2018-12-23T05:20:32.974Z,2.40
2018-12-23T05:23:00.476Z,2.13
2018-12-23T05:25:27.991Z,2.47
2018-12-23T05:27:55.480Z,2.30
2018-12-23T05:30:22.991Z,2.50
2018-12-23T05:32:50.479Z,2.77
2018-12-23T05:35:17.985Z,3.00
2018-12-23T05:37:45.504Z,6.20
2018-12-23T05:40:13.000Z,2.23
2018-12-23T05:42:40.527Z,2.93
2018-12-23T05:45:08.021Z,2.00
2018-12-23T05:47:35.536Z,2.80
2018-12-23T05:50:03.100Z,2.70
2018-12-23T05:52:30.587Z,2.30
2018-12-23T05:54:58.096Z,2.60
2018-12-23T05:57:25.584Z,2.20
2018-12-23T05:59:53.095Z,2.70
2018-12-23T06:02:20.591Z,2.53
2018-12-23T06:04:48.080Z,2.40
2018-12-23T06:07:15.582Z,2.60
2018-12-23T06:09:43.076Z,2.47
2018-12-23T06:12:10.588Z,2.37
2018-12-23T06:14:38.076Z,3.10
2018-12-23T06:17:05.587Z,2.80
2018-12-23T06:19:33.076Z,2.57
2018-12-23T06:22:00.568Z,2.90
2018-12-23T06:24:28.074Z,3.10
2018-12-23T06:26:55.587Z,2.93
2018-12-23T06:29:23.088Z,2.80
2018-12-23T06:31:50.580Z,2.67
2018-12-23T06:34:18.104Z,3.07
2018-12-23T06:36:45.624Z,3.00
2018-12-23T06:39:13.115Z,3.43
2018-12-23T06:41:40.603Z,3.10
2018-12-23T06:44:08.120Z,3.90
2018-12-23T06:46:35.635Z,2.70
2018-12-23T06:49:03.136Z,3.30
2018-12-23T06:51:30.631Z,3.50
2018-12-23T06:53:58.150Z,3.37
2018-12-23T06:56:25.667Z,2.70
2018-12-23T06:58:53.155Z,2.80
2018-12-23T07:01:20.643Z,2.70
2018-12-23T07:03:48.156Z,3.23
2018-12-23T07:06:15.676Z,2.90
2018-12-23T07:08:43.171Z,2.90
2018-12-23T07:11:10.664Z,3.37
2018-12-23T07:13:38.188Z,2.80
2018-12-23T07:16:05.703Z,3.40
2018-12-23T07:18:33.191Z,2.80
2018-12-23T07:21:00.681Z,2.83
2018-12-23T07:23:28.191Z,3.13
2018-12-23T07:25:55.703Z,3.47
2018-12-23T07:28:23.201Z,3.20
2018-12-23T07:30:50.687Z,2.93
2018-12-23T07:33:18.195Z,3.10
2018-12-23T07:35:45.712Z,2.60
2018-12-23T07:38:13.201Z,3.00
2018-12-23T07:40:40.696Z,3.07
2018-12-23T07:43:08.213Z,3.10
2018-12-23T07:45:35.715Z,2.97
2018-12-23T07:48:03.228Z,2.30
2018-12-23T07:50:30.722Z,2.40
2018-12-23T07:52:58.235Z,3.87
2018-12-23T07:55:25.731Z,2.80
2018-12-23T07:57:53.219Z,3.20
2018-12-23T08:00:20.733Z,2.97
2018-12-23T08:02:48.224Z,3.07
2018-12-23T08:05:15.739Z,3.60
2018-12-23T08:07:43.234Z,2.77
2018-12-23T08:10:10.723Z,4.23
2018-12-23T08:12:38.236Z,5.17
2018-12-23T08:15:05.722Z,3.90
2018-12-23T08:17:33.239Z,5.60
2018-12-23T08:20:00.820Z,3.00
2018-12-23T08:22:28.342Z,2.53
2018-12-23T08:24:57.183Z,2.40
2018-12-23T08:27:24.971Z,2.13
2018-12-23T08:29:52.487Z,6.93
2018-12-23T08:32:19.984Z,3.10
2018-12-23T08:34:47.495Z,3.47
2018-12-23T08:37:15.084Z,3.37
2018-12-23T08:39:42.796Z,4.37
2018-12-23T08:42:10.307Z,2.80
2018-12-23T08:44:37.799Z,2.53
2018-12-23T08:47:05.315Z,2.90
2018-12-23T08:49:32.807Z,7.07
2018-12-23T08:52:00.303Z,3.90
2018-12-23T08:54:27.823Z,3.10
2018-12-23T08:56:55.312Z,2.87
2018-12-23T08:59:22.823Z,3.37
2018-12-23T09:01:50.311Z,3.40
2018-12-23T09:04:17.828Z,3.20
2018-12-23T09:06:45.313Z,3.80
2018-12-23T09:09:12.808Z,4.07
2018-12-23T09:11:42.911Z,4.23
2018-12-23T09:14:09.848Z,4.50
2018-12-23T09:16:37.368Z,2.70
2018-12-23T09:19:04.860Z,4.00
2018-12-23T09:21:32.355Z,4.47
2018-12-23T09:23:59.875Z,3.30
2018-12-23T09:26:27.362Z,4.00
2018-12-23T09:28:54.871Z,3.80
2018-12-23T09:31:22.364Z,4.37
2018-12-23T09:33:49.882Z,4.23
2018-12-23T09:36:17.375Z,4.10
2018-12-23T09:38:44.864Z,4.13
2018-12-23T09:41:12.375Z,6.20
2018-12-23T09:43:39.862Z,4.30
2018-12-23T09:46:07.371Z,4.97
2018-12-23T09:48:34.864Z,6.10
2018-12-23T09:51:02.355Z,5.60
2018-12-23T09:53:29.867Z,4.57
2018-12-23T09:55:57.366Z,4.70
2018-12-23T09:58:24.879Z,4.53
2018-12-23T10:00:52.376Z,3.90
2018-12-23T10:03:19.891Z,5.90
2018-12-23T10:05:47.391Z,4.50
2018-12-23T10:08:14.880Z,4.23
2018-12-23T10:10:42.400Z,7.70
2018-12-23T10:13:09.895Z,3.90
2018-12-23T10:15:37.629Z,3.83
2018-12-23T10:18:05.167Z,3.60
2018-12-23T10:20:32.660Z,5.00
2018-12-23T10:23:00.184Z,4.07
2018-12-23T10:25:27.676Z,4.30
2018-12-23T10:27:55.200Z,3.57
2018-12-23T10:30:22.694Z,4.40
2018-12-23T10:32:50.245Z,4.70
2018-12-23T10:35:17.819Z,4.00
2018-12-23T10:37:45.315Z,3.50
2018-12-23T10:40:12.824Z,3.20
2018-12-23T10:42:40.326Z,3.97
2018-12-23T10:45:07.815Z,3.10
2018-12-23T10:47:35.336Z,4.40
2018-12-23T10:50:02.836Z,3.63
2018-12-23T10:52:30.360Z,3.37
2018-12-23T10:54:57.847Z,4.20
2018-12-23T10:57:25.339Z,3.97
2018-12-23T10:59:52.856Z,3.50
2018-12-23T11:02:20.344Z,3.77
2018-12-23T11:04:47.851Z,3.57
2018-12-23T11:07:15.339Z,4.30
2018-12-23T11:09:42.859Z,21.20
2018-12-23T11:12:10.352Z,3.80
2018-12-23T11:14:37.873Z,5.23
2018-12-23T11:17:05.369Z,3.43
2018-12-23T11:19:32.893Z,3.50
2018-12-23T11:22:00.381Z,3.90
2018-12-23T11:24:27.871Z,4.27
2018-12-23T11:26:55.393Z,3.63
2018-12-23T11:29:22.879Z,3.80
2018-12-23T11:31:50.396Z,3.20
2018-12-23T11:34:17.893Z,3.60
2018-12-23T11:36:45.392Z,3.70
2018-12-23T11:39:12.903Z,4.10
2018-12-23T11:41:40.405Z,4.30
2018-12-23T11:44:07.927Z,5.50
2018-12-23T11:46:35.424Z,5.20
2018-12-23T11:49:02.946Z,5.20
2018-12-23T11:51:30.444Z,6.90
2018-12-23T11:53:57.945Z,7.30
2018-12-23T11:56:25.460Z,5.00
2018-12-23T11:58:52.951Z,4.97
2018-12-23T12:01:20.463Z,6.83
2018-12-23T12:03:47.962Z,3.73
2018-12-23T12:06:15.475Z,5.90
2018-12-23T12:08:43.873Z,5.17
2018-12-23T12:11:11.804Z,5.20
2018-12-23T12:13:39.295Z,5.07
2018-12-23T12:16:06.807Z,4.60
2018-12-23T12:18:34.295Z,4.63
2018-12-23T12:21:01.788Z,4.30
2018-12-23T12:23:29.299Z,6.90
2018-12-23T12:25:56.797Z,5.13
2018-12-23T12:28:24.311Z,5.40
2018-12-23T12:30:51.803Z,5.50
2018-12-23T12:33:19.323Z,4.03
2018-12-23T12:35:46.851Z,4.53
2018-12-23T12:38:14.372Z,4.67
2018-12-23T12:40:41.864Z,4.73
2018-12-23T12:43:09.351Z,4.37
2018-12-23T12:45:36.868Z,4.30
2018-12-23T12:48:04.364Z,5.47
2018-12-23T12:50:31.883Z,4.90
2018-12-23T12:52:59.376Z,4.70
2018-12-23T12:55:27.468Z,3.90
2018-12-23T12:57:54.968Z,4.10
2018-12-23T13:00:22.494Z,15.03
2018-12-23T13:02:49.983Z,3.60
2018-12-23T13:05:17.484Z,4.33
2018-12-23T13:07:45.008Z,4.20
2018-12-23T13:10:12.508Z,7.73
2018-12-23T13:12:40.019Z,5.37
2018-12-23T13:15:09.218Z,4.43
2018-12-23T13:17:36.851Z,4.23
2018-12-23T13:20:05.807Z,5.00
2018-12-23T13:22:33.308Z,4.43
2018-12-23T13:25:00.829Z,4.00
2018-12-23T13:27:28.319Z,4.20
2018-12-23T13:29:55.830Z,5.27
2018-12-23T13:32:23.323Z,4.60
2018-12-23T13:34:50.836Z,4.43
2018-12-23T13:37:18.323Z,5.53
2018-12-23T13:39:45.923Z,4.90
2018-12-23T13:42:21.980Z,4.20
2018-12-23T13:44:54.337Z,5.70
2018-12-23T13:51:19.941Z,5.43
2018-12-23T13:54:00.753Z,5.30
2018-12-23T13:56:52.240Z,4.03
2018-12-23T13:59:47.901Z,5.40
2018-12-23T14:02:28.460Z,4.17
2018-12-23T14:05:03.001Z,5.43
2018-12-23T14:07:37.523Z,6.33
2018-12-23T14:10:33.453Z,4.20
2018-12-23T14:13:02.116Z,3.77
2018-12-23T14:15:30.676Z,3.30
2018-12-23T14:17:59.341Z,4.10
2018-12-23T14:20:27.904Z,3.87
2018-12-23T14:22:56.641Z,3.70
2018-12-23T14:25:25.307Z,3.40
2018-12-23T14:27:53.946Z,3.70
2018-12-23T14:30:22.848Z,3.63
2018-12-23T14:32:51.415Z,2.90
2018-12-23T14:35:20.050Z,3.57
2018-12-23T14:37:48.707Z,2.57
2018-12-23T14:40:17.265Z,3.60
2018-12-23T14:42:46.280Z,4.23
2018-12-23T14:45:14.849Z,3.43
2018-12-23T14:47:43.521Z,3.27
2018-12-23T14:50:12.161Z,3.77
2018-12-23T14:52:40.801Z,3.97
2018-12-23T14:55:09.713Z,3.00
2018-12-23T14:57:38.390Z,4.30
2018-12-23T15:00:09.602Z,3.60
2018-12-23T15:02:38.562Z,5.03
2018-12-23T15:05:07.297Z,6.33
2018-12-23T15:07:35.857Z,5.50
2018-12-23T15:10:06.361Z,5.10
2018-12-23T15:12:35.224Z,3.47
2018-12-23T15:15:03.785Z,4.27
2018-12-23T15:17:32.372Z,3.47
2018-12-23T15:20:00.928Z,3.53
2018-12-23T15:22:29.520Z,4.30
2018-12-23T15:24:58.085Z,5.20
2018-12-23T15:27:26.749Z,4.80
2018-12-23T15:29:55.318Z,8.37
2018-12-23T15:32:24.076Z,3.93
2018-12-23T15:34:52.637Z,3.80
2018-12-23T15:37:21.472Z,3.60
2018-12-23T15:39:50.370Z,4.00
2018-12-23T15:42:19.001Z,3.80
2018-12-23T15:44:47.945Z,4.07
2018-12-23T15:47:16.936Z,5.37
2018-12-23T15:49:45.505Z,4.97
2018-12-23T15:52:14.268Z,4.10
2018-12-23T15:54:46.380Z,4.07
2018-12-23T15:57:13.223Z,4.60
2018-12-23T15:59:42.209Z,5.00
2018-12-23T16:02:10.853Z,3.83
2018-12-23T16:04:39.516Z,5.60
2018-12-23T16:07:08.140Z,5.07
2018-12-23T16:09:36.728Z,4.43
2018-12-23T16:12:06.600Z,6.50
2018-12-23T16:14:35.180Z,7.80
2018-12-23T16:17:03.758Z,5.07
2018-12-23T16:19:32.452Z,4.30
2018-12-23T16:22:01.053Z,5.30
2018-12-23T16:24:29.705Z,7.13
2018-12-23T16:26:58.361Z,6.70
2018-12-23T16:29:26.925Z,6.60
2018-12-23T16:31:55.593Z,6.43
2018-12-23T16:34:24.529Z,5.83
2018-12-23T16:36:53.432Z,8.80
2018-12-23T16:39:22.416Z,4.00
2018-12-23T16:41:50.982Z,4.80
2018-12-23T16:44:19.997Z,4.60
2018-12-23T16:46:48.881Z,5.57
2018-12-23T16:49:17.549Z,6.00
2018-12-23T16:51:46.186Z,4.97
2018-12-23T16:54:14.849Z,4.50
2018-12-23T16:56:43.418Z,4.90
2018-12-23T16:59:12.077Z,4.30
2018-12-23T17:01:40.638Z,4.50
2018-12-23T17:04:09.585Z,6.60
2018-12-23T17:06:38.501Z,4.10
2018-12-23T17:09:07.778Z,5.00
2018-12-23T17:11:36.410Z,4.30
2018-12-23T17:14:05.069Z,4.53
2018-12-23T17:16:33.720Z,4.20
2018-12-23T17:19:02.353Z,4.93
2018-12-23T17:21:30.950Z,5.03
2018-12-23T17:23:59.585Z,6.00
2018-12-23T17:26:28.249Z,4.70
2018-12-23T17:28:57.269Z,5.80
2018-12-23T17:31:25.930Z,6.00
2018-12-23T17:33:54.568Z,6.97
2018-12-23T17:36:23.132Z,6.90
2018-12-23T17:38:51.804Z,7.70
2018-12-23T17:41:20.378Z,7.43
2018-12-23T17:43:49.384Z,7.40
2018-12-23T17:46:18.021Z,8.27
2018-12-23T17:48:46.605Z,8.57
2018-12-23T17:51:15.165Z,8.50
2018-12-23T17:53:43.752Z,8.50
2018-12-23T17:56:12.605Z,8.30
2018-12-23T17:58:41.165Z,8.07
2018-12-23T18:01:09.992Z,9.20
2018-12-23T18:03:38.562Z,8.50
2018-12-23T18:06:07.229Z,8.77
2018-12-23T18:08:35.796Z,9.20
2018-12-23T18:11:04.456Z,9.50
2018-12-23T18:13:33.051Z,8.90
2018-12-23T18:16:01.697Z,10.40
2018-12-23T18:18:30.884Z,9.20
2018-12-23T18:20:59.477Z,8.33
2018-12-23T18:23:28.117Z,9.50
2018-12-23T18:25:56.757Z,9.17
2018-12-23T18:28:25.340Z,8.97
2018-12-23T18:30:53.912Z,9.83
2018-12-23T18:33:22.581Z,10.10
2018-12-23T18:35:51.296Z,9.40
2018-12-23T18:38:19.976Z,11.17
2018-12-23T18:40:48.541Z,22.63
2018-12-23T18:43:17.208Z,14.10
2018-12-23T18:45:45.778Z,11.07
2018-12-23T18:48:14.820Z,11.73
2018-12-23T18:50:43.385Z,10.13
2018-12-23T18:53:11.989Z,9.37
2018-12-23T18:55:40.620Z,9.87
2018-12-23T18:58:09.262Z,8.67
2018-12-23T19:00:38.370Z,9.53
2018-12-23T19:03:07.005Z,8.70
2018-12-23T19:05:35.681Z,8.60
2018-12-23T19:08:04.658Z,8.60
2018-12-23T19:10:41.957Z,8.07
2018-12-23T19:13:15.757Z,7.40
2018-12-23T19:15:56.367Z,6.80
2018-12-23T19:18:40.317Z,6.00
2018-12-23T19:21:37.981Z,6.00
2018-12-23T19:24:24.392Z,6.47
2018-12-23T19:27:04.993Z,6.43
2018-12-23T19:29:45.376Z,6.60
2018-12-23T19:32:37.337Z,4.93
2018-12-23T19:35:44.180Z,5.10
2018-12-23T19:38:24.534Z,4.17
2018-12-23T19:41:11.053Z,4.00
2018-12-23T19:43:57.953Z,4.60
2018-12-23T19:46:58.700Z,3.43
2018-12-23T19:49:50.902Z,4.10
2018-12-23T19:52:27.633Z,4.10
2018-12-23T19:55:01.954Z,4.03
2018-12-23T19:57:50.717Z,2.87
2018-12-23T20:00:25.320Z,2.80
2018-12-23T20:03:03.010Z,2.57
2018-12-23T20:05:50.461Z,2.47
2018-12-23T20:08:30.904Z,2.70
2018-12-23T20:11:17.777Z,3.00
2018-12-23T20:13:55.848Z,2.40
2018-12-23T20:16:42.800Z,2.13
2018-12-23T20:19:43.223Z,1.93
2018-12-23T20:22:39.596Z,1.80
2018-12-23T20:25:32.408Z,2.07
2018-12-23T20:28:15.833Z,2.00
2018-12-23T20:31:02.643Z,2.10
2018-12-23T20:33:46.169Z,2.17
2018-12-23T20:36:41.936Z,1.93
2018-12-23T20:39:22.989Z,2.20
2018-12-23T20:42:27.841Z,2.80
2018-12-23T20:45:33.004Z,2.30
2018-12-23T20:48:13.868Z,1.90
2018-12-23T20:51:08.572Z,18.07
2018-12-23T20:53:59.909Z,1.90
2018-12-23T20:56:55.680Z,2.00
2018-12-23T20:59:29.988Z,2.30
2018-12-23T21:02:24.082Z,2.30
2018-12-23T21:04:55.838Z,1.63
2018-12-23T21:07:27.556Z,1.73
2018-12-23T21:10:14.520Z,1.57
2018-12-23T21:12:46.160Z,1.83
2018-12-23T21:15:49.799Z,1.80
2018-12-23T21:18:39.300Z,1.80
2018-12-23T21:21:32.044Z,3.67
2018-12-23T21:24:23.653Z,1.80
2018-12-23T21:27:07.392Z,1.80
2018-12-23T21:29:39.111Z,1.60
2018-12-23T21:32:19.777Z,2.13
2018-12-23T21:34:57.056Z,2.13
2018-12-23T21:37:31.605Z,1.60
2018-12-23T21:40:12.310Z,1.57
2018-12-23T21:42:43.976Z,1.70
2018-12-23T21:45:24.460Z,1.77
2018-12-23T21:47:56.132Z,1.50
2018-12-23T21:50:33.705Z,1.50
2018-12-23T21:53:17.832Z,1.23
2018-12-23T21:55:49.477Z,1.40
2018-12-23T21:58:26.886Z,1.30
2018-12-23T22:00:58.604Z,1.30
2018-12-23T22:03:48.205Z,1.30
2018-12-23T22:06:40.375Z,1.10
2018-12-23T22:09:17.991Z,0.90
2018-12-23T22:12:07.825Z,0.87
2018-12-23T22:14:36.501Z,0.97
2018-12-23T22:17:05.517Z,1.47
2018-12-23T22:19:34.162Z,1.10
2018-12-23T22:22:02.823Z,1.13
2018-12-23T22:24:31.389Z,1.00
2018-12-23T22:26:59.986Z,0.93
2018-12-23T22:29:28.629Z,1.30
2018-12-23T22:31:57.306Z,1.30
2018-12-23T22:34:26.312Z,1.30
2018-12-23T22:36:54.981Z,1.37
2018-12-23T22:39:23.620Z,1.50
2018-12-23T22:41:52.207Z,1.00
2018-12-23T22:44:20.776Z,0.90
2018-12-23T22:46:49.774Z,0.93
2018-12-23T22:49:18.732Z,0.90
2018-12-23T22:51:47.301Z,0.90
2018-12-23T22:54:15.977Z,1.00
2018-12-23T22:56:44.630Z,0.87
2018-12-23T22:59:13.586Z,0.80
2018-12-23T23:01:42.231Z,1.03
2018-12-23T23:04:10.912Z,0.80
2018-12-23T23:06:39.840Z,1.10
2018-12-23T23:09:08.405Z,0.80
2018-12-23T23:11:36.999Z,1.03
2018-12-23T23:14:06.013Z,0.93
2018-12-23T23:16:34.658Z,0.90
2018-12-23T23:19:03.301Z,0.90
2018-12-23T23:21:32.073Z,0.90
2018-12-23T23:24:00.713Z,0.97
2018-12-23T23:26:29.309Z,0.90
2018-12-23T23:28:57.952Z,0.70
2018-12-23T23:31:26.620Z,1.20
2018-12-23T23:33:55.273Z,1.00
2018-12-23T23:36:24.091Z,0.90
2018-12-23T23:38:52.760Z,0.90
2018-12-23T23:41:21.329Z,0.90
2018-12-23T23:43:50.002Z,0.90
2018-12-23T23:46:18.637Z,0.90
2018-12-23T23:48:47.225Z,0.90
2018-12-23T23:51:15.972Z,0.90
2018-12-23T23:53:44.560Z,0.87
2018-12-23T23:56:13.120Z,0.70
2018-12-23T23:58:41.690Z,0.80
